Time;durP1;ratioP1;P1;durP2;ratioP2;P2;SDS_P1;SDS_P2;PMS_P1;PMS_P2;Temp;Humidity;BMP_temperature;BMP_pressure;BME280_temperature;BME280_humidity;BME280_pressure;Samples;Min_cycle;Max_cycle;Signal;HPM_P1;HPM_P2
2022/03/28 00:01:19;;;;;;;23.63;12.57;;;9.10;99.90;;;;;;5049842;28;20480;-58
2022/03/28 00:03:45;;;;;;;24.50;12.52;;;9.10;99.90;;;;;;5049324;28;20037;-55
2022/03/28 00:06:11;;;;;;;21.92;12.20;;;9.00;99.90;;;;;;5035343;28;20056;-60
2022/03/28 00:08:37;;;;;;;23.25;13.25;;;8.90;99.90;;;;;;5048167;28;20037;-57
2022/03/28 00:11:04;;;;;;;23.88;12.73;;;8.90;99.90;;;;;;5041968;28;20032;-57
2022/03/28 00:13:29;;;;;;;24.50;13.88;;;8.80;99.90;;;;;;5047170;28;20026;-58
2022/03/28 00:15:55;;;;;;;20.70;12.00;;;8.80;99.90;;;;;;5041275;28;20052;-60
2022/03/28 00:18:21;;;;;;;21.63;12.50;;;8.80;99.90;;;;;;5039812;28;20040;-58
2022/03/28 00:20:49;;;;;;;27.33;13.00;;;8.80;99.90;;;;;;5040104;28;20092;-57
2022/03/28 00:23:15;;;;;;;22.85;12.23;;;8.70;99.90;;;;;;5043970;28;20078;-56
2022/03/28 00:25:42;;;;;;;23.05;12.77;;;8.70;99.90;;;;;;5042613;28;20029;-55
2022/03/28 00:28:08;;;;;;;25.20;12.68;;;8.60;99.90;;;;;;5034788;28;20026;-57
2022/03/28 00:30:34;;;;;;;25.02;13.23;;;8.60;99.90;;;;;;5042705;28;20025;-55
2022/03/28 00:32:59;;;;;;;24.13;13.00;;;8.50;99.90;;;;;;5036854;28;20030;-57
2022/03/28 00:35:26;;;;;;;20.08;12.43;;;8.50;99.90;;;;;;5053587;28;20032;-57
2022/03/28 00:37:54;;;;;;;22.10;12.45;;;8.40;99.90;;;;;;5037853;28;20025;-53
2022/03/28 00:40:20;;;;;;;25.70;13.55;;;8.40;99.90;;;;;;5027513;28;20025;-56
2022/03/28 00:42:49;;;;;;;24.23;13.15;;;8.40;99.90;;;;;;5038546;28;20029;-57
2022/03/28 00:45:15;;;;;;;20.98;11.57;;;8.40;99.90;;;;;;5040707;28;20067;-59
2022/03/28 00:47:42;;;;;;;24.52;13.18;;;8.50;99.90;;;;;;5034048;28;20389;-59
2022/03/28 00:50:09;;;;;;;24.05;13.77;;;8.50;99.90;;;;;;5040512;28;20021;-57
2022/03/28 00:52:36;;;;;;;25.40;13.32;;;8.50;99.90;;;;;;5048890;28;20423;-57
2022/03/28 00:55:03;;;;;;;26.65;13.43;;;8.40;99.90;;;;;;5044925;28;20395;-54
2022/03/28 00:57:33;;;;;;;24.45;13.27;;;8.40;99.90;;;;;;5040099;28;20476;-61
2022/03/28 00:59:59;;;;;;;23.85;13.23;;;8.40;99.90;;;;;;5034097;28;20030;-58
2022/03/28 01:02:25;;;;;;;20.40;11.65;;;8.30;99.90;;;;;;5047325;28;20037;-58
2022/03/28 01:04:51;;;;;;;26.90;14.15;;;8.30;99.90;;;;;;5049219;28;20036;-56
2022/03/28 01:07:17;;;;;;;25.73;14.18;;;8.30;99.90;;;;;;5035177;28;20048;-55
2022/03/28 01:09:43;;;;;;;29.40;13.50;;;8.30;99.90;;;;;;5034345;28;20029;-53
2022/03/28 01:12:10;;;;;;;26.25;13.02;;;8.20;99.90;;;;;;5033872;28;20476;-58
2022/03/28 01:14:36;;;;;;;26.05;13.73;;;8.10;99.90;;;;;;5048667;28;20095;-57
2022/03/28 01:19:53;;;;;;;26.60;14.48;;;8.00;99.90;;;;;;5048913;28;20036;-57
2022/03/28 01:22:19;;;;;;;27.40;15.20;;;8.00;99.90;;;;;;5045348;28;20034;-58
2022/03/28 01:24:46;;;;;;;29.35;13.43;;;7.90;99.90;;;;;;5039561;28;20025;-57
2022/03/28 01:27:12;;;;;;;31.35;14.68;;;7.90;99.90;;;;;;5040571;28;20029;-57
2022/03/28 01:29:38;;;;;;;28.25;15.20;;;7.90;99.90;;;;;;5051998;28;20032;-56
2022/03/28 01:32:04;;;;;;;27.30;14.95;;;7.90;99.90;;;;;;5050219;28;20029;-58
2022/03/28 01:34:29;;;;;;;33.03;17.45;;;7.90;99.90;;;;;;5051646;28;20017;-55
2022/03/28 01:36:55;;;;;;;29.55;15.52;;;7.90;99.90;;;;;;5039579;28;20558;-59
2022/03/28 01:39:20;;;;;;;34.03;16.05;;;7.90;99.90;;;;;;5040350;28;20033;-58
2022/03/28 01:41:46;;;;;;;31.60;15.27;;;7.90;99.90;;;;;;5040328;28;20103;-57
2022/03/28 01:44:13;;;;;;;31.52;16.40;;;8.00;99.90;;;;;;5035485;28;20017;-58
2022/03/28 01:46:46;;;;;;;29.05;15.95;;;8.00;99.90;;;;;;5032779;28;20412;-56
2022/03/28 01:49:14;;;;;;;28.02;15.68;;;8.00;99.90;;;;;;5030508;28;20485;-56
2022/03/28 01:51:39;;;;;;;31.98;16.05;;;8.00;99.90;;;;;;5030383;28;20037;-58
2022/03/28 01:54:05;;;;;;;32.15;15.75;;;8.00;99.90;;;;;;5043489;28;20560;-55
2022/03/28 01:56:34;;;;;;;29.50;15.00;;;8.00;99.90;;;;;;5044587;28;20061;-56
2022/03/28 01:59:00;;;;;;;26.52;14.32;;;8.00;99.90;;;;;;5040140;28;20083;-57
2022/03/28 02:01:25;;;;;;;29.02;14.85;;;7.90;99.90;;;;;;5042335;28;20029;-57
2022/03/28 02:03:51;;;;;;;32.78;15.40;;;7.80;99.90;;;;;;5037592;28;20109;-57
2022/03/28 02:06:16;;;;;;;30.38;16.80;;;7.80;99.90;;;;;;5016591;28;20105;-59
2022/03/28 02:08:42;;;;;;;28.70;16.23;;;7.70;99.90;;;;;;5031054;28;20037;-59
2022/03/28 02:11:07;;;;;;;33.90;17.50;;;7.70;99.90;;;;;;5034331;28;20038;-59
2022/03/28 02:13:33;;;;;;;32.10;16.25;;;7.70;99.90;;;;;;5038567;28;20060;-56
2022/03/28 02:16:00;;;;;;;29.55;16.08;;;7.70;99.90;;;;;;5050514;28;20364;-56
2022/03/28 02:18:26;;;;;;;32.63;16.25;;;7.60;99.90;;;;;;5049077;28;20029;-57
2022/03/28 02:20:52;;;;;;;32.70;15.88;;;7.60;99.90;;;;;;5051442;28;20028;-57
2022/03/28 02:23:17;;;;;;;32.40;16.33;;;7.60;99.90;;;;;;5036425;28;20025;-55
2022/03/28 02:25:43;;;;;;;36.03;17.45;;;7.50;99.90;;;;;;5030974;28;20036;-57
2022/03/28 02:28:10;;;;;;;31.80;16.27;;;7.50;99.90;;;;;;5037935;28;20035;-59
2022/03/28 02:30:36;;;;;;;29.05;15.75;;;7.50;99.90;;;;;;5047880;28;20037;-56
2022/03/28 02:33:02;;;;;;;32.13;16.38;;;7.50;99.90;;;;;;5044747;28;20533;-60
2022/03/28 02:35:27;;;;;;;34.90;17.52;;;7.40;99.90;;;;;;5050937;28;20043;-59
2022/03/28 02:37:53;;;;;;;39.75;17.33;;;7.50;99.90;;;;;;5034695;28;20144;-60
2022/03/28 02:40:18;;;;;;;30.70;16.77;;;7.40;99.90;;;;;;5041400;28;20032;-57
2022/03/28 02:42:44;;;;;;;36.25;17.00;;;7.40;99.90;;;;;;5038404;28;20131;-57
2022/03/28 02:45:10;;;;;;;36.65;19.10;;;7.40;99.90;;;;;;5047383;28;20025;-58
2022/03/28 02:47:35;;;;;;;32.83;17.33;;;7.40;99.90;;;;;;5037949;28;20520;-58
2022/03/28 02:50:02;;;;;;;32.78;16.85;;;7.40;99.90;;;;;;5036182;28;20466;-58
2022/03/28 02:52:27;;;;;;;37.83;17.13;;;7.50;99.90;;;;;;5035139;28;20117;-57
2022/03/28 02:54:53;;;;;;;28.35;16.67;;;7.40;99.90;;;;;;5047005;28;20112;-57
2022/03/28 02:57:19;;;;;;;33.95;17.73;;;7.40;99.90;;;;;;5036686;28;20033;-58
2022/03/28 02:59:44;;;;;;;34.22;16.83;;;7.40;99.90;;;;;;5041684;28;20396;-58
2022/03/28 03:02:10;;;;;;;36.88;17.80;;;7.40;99.90;;;;;;5038903;28;20026;-59
2022/03/28 03:04:36;;;;;;;33.88;16.70;;;7.40;99.90;;;;;;5044685;28;20029;-58
2022/03/28 03:07:02;;;;;;;35.63;17.08;;;7.30;99.90;;;;;;5025240;28;20017;-59
2022/03/28 03:09:28;;;;;;;31.30;16.40;;;7.30;99.90;;;;;;5043099;28;20067;-60
2022/03/28 03:11:54;;;;;;;29.48;15.40;;;7.20;99.90;;;;;;5036798;28;20037;-59
2022/03/28 03:14:20;;;;;;;31.15;16.65;;;7.20;99.90;;;;;;5040791;28;20496;-60
2022/03/28 03:16:45;;;;;;;29.83;16.40;;;7.20;99.90;;;;;;5035197;28;20064;-59
2022/03/28 03:19:11;;;;;;;30.17;16.77;;;7.10;99.90;;;;;;5041114;28;20120;-58
2022/03/28 03:21:37;;;;;;;39.80;17.33;;;7.10;99.90;;;;;;5040598;28;20534;-58
2022/03/28 03:24:02;;;;;;;32.30;17.40;;;7.20;99.90;;;;;;5048382;28;20108;-58
2022/03/28 03:26:28;;;;;;;32.60;16.20;;;7.20;99.90;;;;;;5049058;28;20029;-58
2022/03/28 03:28:55;;;;;;;32.50;16.98;;;7.20;99.90;;;;;;5051834;28;20107;-58
2022/03/28 03:31:21;;;;;;;28.75;15.75;;;7.10;99.90;;;;;;5045096;28;20029;-57
2022/03/28 03:33:47;;;;;;;34.70;17.17;;;7.10;99.90;;;;;;5046003;28;20052;-58
2022/03/28 03:36:13;;;;;;;29.63;16.27;;;7.10;99.90;;;;;;5034092;28;20488;-57
2022/03/28 03:38:38;;;;;;;28.42;15.52;;;7.00;99.90;;;;;;5042165;28;20033;-57
2022/03/28 03:41:04;;;;;;;31.27;16.75;;;7.00;99.90;;;;;;5041947;28;20068;-56
2022/03/28 03:43:30;;;;;;;32.03;16.33;;;6.90;99.90;;;;;;5039962;28;20040;-59
2022/03/28 03:45:55;;;;;;;35.80;18.02;;;6.90;99.90;;;;;;5048587;28;20021;-56
2022/03/28 03:48:22;;;;;;;38.85;17.13;;;7.00;99.90;;;;;;5049545;28;20055;-59
2022/03/28 03:50:47;;;;;;;34.33;17.60;;;7.00;99.90;;;;;;5045579;28;20029;-60
2022/03/28 03:53:14;;;;;;;30.85;16.05;;;7.10;99.90;;;;;;5044156;28;20053;-57
2022/03/28 03:55:40;;;;;;;31.60;16.80;;;7.10;99.90;;;;;;5051629;28;20036;-58
2022/03/28 03:58:05;;;;;;;33.10;17.77;;;7.10;99.90;;;;;;5034451;28;20041;-60
2022/03/28 04:00:31;;;;;;;33.45;16.35;;;7.20;99.90;;;;;;5051755;28;20071;-60
2022/03/28 04:02:57;;;;;;;27.05;15.60;;;7.30;99.90;;;;;;5041477;28;20025;-61
2022/03/28 04:05:23;;;;;;;26.63;15.43;;;7.30;99.90;;;;;;5044159;28;20037;-59
2022/03/28 04:07:48;;;;;;;29.35;15.07;;;7.30;99.90;;;;;;5016361;28;20274;-57
2022/03/28 04:10:14;;;;;;;28.23;15.80;;;7.30;99.90;;;;;;5052546;28;20035;-60
2022/03/28 04:12:39;;;;;;;27.45;14.88;;;7.40;99.90;;;;;;5046432;28;20057;-61
2022/03/28 04:15:06;;;;;;;28.88;14.57;;;7.40;99.90;;;;;;5051607;28;20033;-60
2022/03/28 04:17:43;;;;;;;28.67;14.05;;;7.40;99.90;;;;;;5033506;28;20116;-59
2022/03/28 04:20:10;;;;;;;33.70;15.80;;;7.40;99.90;;;;;;5035847;28;20029;-59
2022/03/28 04:22:36;;;;;;;30.65;16.45;;;7.30;99.90;;;;;;5033169;28;20467;-59
2022/03/28 04:25:02;;;;;;;30.83;16.60;;;7.20;99.90;;;;;;5035548;28;20034;-58
2022/03/28 04:27:27;;;;;;;30.48;16.00;;;7.20;99.90;;;;;;5036994;28;20145;-59
2022/03/28 04:29:53;;;;;;;26.02;15.15;;;7.00;99.90;;;;;;5040109;28;20061;-59
2022/03/28 04:32:18;;;;;;;28.55;15.40;;;6.90;99.90;;;;;;5037738;28;20562;-56
2022/03/28 04:34:44;;;;;;;32.53;15.23;;;6.90;99.90;;;;;;5048451;28;20067;-58
2022/03/28 04:37:09;;;;;;;31.30;15.65;;;6.80;99.90;;;;;;5042361;28;20029;-60
2022/03/28 04:39:35;;;;;;;32.00;15.70;;;6.80;99.90;;;;;;5031519;28;20144;-58
2022/03/28 04:42:00;;;;;;;31.90;16.67;;;6.80;99.90;;;;;;5033206;28;20021;-60
2022/03/28 04:44:26;;;;;;;31.85;16.48;;;6.70;99.90;;;;;;5042605;28;20032;-60
2022/03/28 04:46:51;;;;;;;25.95;15.00;;;6.70;99.90;;;;;;5033330;28;20080;-59
2022/03/28 04:49:17;;;;;;;31.42;14.93;;;6.60;99.90;;;;;;5035477;28;20033;-56
2022/03/28 04:51:43;;;;;;;28.58;14.90;;;6.60;99.90;;;;;;5035554;28;20074;-57
2022/03/28 04:54:09;;;;;;;33.10;16.15;;;6.50;99.90;;;;;;5042792;28;20108;-57
2022/03/28 04:56:34;;;;;;;33.65;16.02;;;6.50;99.90;;;;;;5052103;28;20024;-58
2022/03/28 04:59:02;;;;;;;35.65;16.33;;;6.50;99.90;;;;;;5043952;28;20508;-60
2022/03/28 05:01:28;;;;;;;28.67;16.30;;;6.50;99.90;;;;;;5038010;28;20522;-59
2022/03/28 05:03:53;;;;;;;31.80;16.02;;;6.50;99.90;;;;;;5038553;28;20021;-58
2022/03/28 05:06:19;;;;;;;31.90;14.98;;;6.50;99.90;;;;;;5046382;28;20091;-60
2022/03/28 05:08:44;;;;;;;33.22;16.27;;;6.40;99.90;;;;;;5036219;28;20573;-60
2022/03/28 05:11:10;;;;;;;29.98;15.60;;;6.40;99.90;;;;;;5044435;28;20038;-58
2022/03/28 05:13:35;;;;;;;33.72;16.60;;;6.40;99.90;;;;;;5035465;28;20041;-60
2022/03/28 05:16:02;;;;;;;33.35;16.75;;;6.40;99.90;;;;;;5045175;28;20492;-58
2022/03/28 05:18:27;;;;;;;35.67;17.40;;;6.40;99.90;;;;;;5048646;28;20028;-57
2022/03/28 05:20:53;;;;;;;32.75;16.60;;;6.40;99.90;;;;;;5036419;28;20087;-60
2022/03/28 05:23:18;;;;;;;36.35;17.48;;;6.40;99.90;;;;;;5035154;28;20017;-56
2022/03/28 05:25:44;;;;;;;37.78;17.17;;;6.40;99.90;;;;;;5037121;28;20052;-60
2022/03/28 05:28:09;;;;;;;34.05;18.20;;;6.50;99.90;;;;;;5037554;28;20068;-56
2022/03/28 05:30:35;;;;;;;39.33;17.60;;;6.60;99.90;;;;;;5037696;28;20029;-59
2022/03/28 05:33:01;;;;;;;32.97;16.73;;;6.60;99.90;;;;;;5043559;28;20029;-59
2022/03/28 05:35:27;;;;;;;35.97;16.85;;;6.70;99.90;;;;;;5034228;28;20038;-57
2022/03/28 05:37:53;;;;;;;32.00;16.85;;;6.70;99.90;;;;;;5033300;28;20032;-57
2022/03/28 05:40:19;;;;;;;28.30;15.05;;;6.80;99.90;;;;;;5050257;28;20485;-59
2022/03/28 05:42:44;;;;;;;28.05;15.65;;;6.80;99.90;;;;;;5043443;28;20021;-60
2022/03/28 05:45:11;;;;;;;29.50;16.48;;;6.90;99.90;;;;;;5035742;28;20026;-60
2022/03/28 05:47:37;;;;;;;28.20;16.27;;;6.90;99.90;;;;;;5031399;28;20023;-57
2022/03/28 05:50:03;;;;;;;29.30;15.15;;;7.00;99.90;;;;;;5039007;28;20029;-58
2022/03/28 05:52:29;;;;;;;26.92;15.68;;;7.00;99.90;;;;;;5039153;28;20041;-56
2022/03/28 05:54:55;;;;;;;27.52;14.18;;;7.10;99.90;;;;;;5046918;28;20107;-57
2022/03/28 05:57:20;;;;;;;30.05;15.40;;;7.20;99.90;;;;;;5043286;28;20029;-58
2022/03/28 05:59:46;;;;;;;25.95;15.00;;;7.30;99.90;;;;;;5044926;28;20040;-57
2022/03/28 06:02:12;;;;;;;24.02;15.13;;;7.40;99.90;;;;;;5038237;28;20475;-57
2022/03/28 06:04:37;;;;;;;27.10;14.00;;;7.60;99.90;;;;;;5049027;28;20035;-59
2022/03/28 06:07:03;;;;;;;21.02;13.13;;;7.80;99.90;;;;;;5049042;28;20047;-57
2022/03/28 06:09:29;;;;;;;20.98;13.32;;;8.20;99.90;;;;;;5033876;28;20052;-56
2022/03/28 06:11:54;;;;;;;23.75;12.38;;;8.60;99.90;;;;;;5038663;28;20118;-56
2022/03/28 06:14:20;;;;;;;19.80;11.43;;;9.10;99.90;;;;;;5045937;28;20040;-60
2022/03/28 06:16:45;;;;;;;18.95;11.55;;;9.60;99.90;;;;;;5040369;28;20030;-58
2022/03/28 06:19:11;;;;;;;19.33;11.73;;;10.40;99.90;;;;;;5025501;28;20037;-59
2022/03/28 06:21:36;;;;;;;17.85;11.65;;;10.90;99.90;;;;;;5038772;28;20037;-60
2022/03/28 06:24:02;;;;;;;18.45;10.35;;;11.00;99.90;;;;;;5051012;28;20025;-58
2022/03/28 06:26:28;;;;;;;21.73;11.35;;;11.10;99.90;;;;;;5042159;28;20641;-59
2022/03/28 06:28:53;;;;;;;18.05;11.30;;;11.00;99.90;;;;;;5040853;28;20086;-57
2022/03/28 06:31:19;;;;;;;16.73;10.32;;;11.00;99.90;;;;;;5047949;28;20047;-59
2022/03/28 06:33:44;;;;;;;17.45;11.40;;;10.90;99.90;;;;;;5041921;28;20437;-59
2022/03/28 06:36:10;;;;;;;15.73;10.38;;;11.00;99.90;;;;;;5039980;28;20025;-58
2022/03/28 06:38:36;;;;;;;16.13;10.60;;;11.00;99.90;;;;;;5043732;28;20451;-57
2022/03/28 06:41:02;;;;;;;14.57;10.40;;;11.00;99.90;;;;;;5036336;28;20025;-58
2022/03/28 06:43:28;;;;;;;17.33;10.60;;;11.40;99.90;;;;;;5035301;28;20132;-57
2022/03/28 06:45:53;;;;;;;16.02;10.95;;;11.50;99.90;;;;;;5034398;28;20527;-59
2022/03/28 06:48:20;;;;;;;14.68;10.55;;;11.60;99.90;;;;;;5041459;28;20051;-61
2022/03/28 06:50:46;;;;;;;14.70;10.95;;;12.00;99.90;;;;;;5044199;28;20029;-60
2022/03/28 06:53:12;;;;;;;15.38;10.25;;;12.20;99.90;;;;;;5032800;28;20500;-58
2022/03/28 06:55:37;;;;;;;15.73;9.85;;;12.70;99.90;;;;;;5031831;28;20033;-61
2022/03/28 06:58:03;;;;;;;13.20;10.25;;;13.30;99.90;;;;;;5031041;28;20378;-58
2022/03/28 07:00:29;;;;;;;13.85;9.63;;;14.00;99.90;;;;;;5040837;28;20030;-60
2022/03/28 07:02:54;;;;;;;13.38;9.40;;;15.20;99.80;;;;;;5043144;28;20029;-58
2022/03/28 07:05:20;;;;;;;12.55;9.27;;;15.80;97.50;;;;;;5035311;28;20044;-53
2022/03/28 07:07:47;;;;;;;11.60;8.55;;;16.40;95.50;;;;;;5044570;28;20017;-59
2022/03/28 07:10:18;;;;;;;12.10;8.60;;;17.40;94.00;;;;;;5049005;28;20071;-58
2022/03/28 07:12:44;;;;;;;10.80;8.55;;;18.00;92.30;;;;;;5034642;28;20029;-58
2022/03/28 07:15:11;;;;;;;10.68;7.43;;;18.40;91.30;;;;;;5045407;28;20143;-60
2022/03/28 07:17:56;;;;;;;10.98;7.70;;;19.10;90.00;;;;;;5043888;28;20166;-59
2022/03/28 07:20:26;;;;;;;10.77;8.15;;;19.50;85.50;;;;;;5018004;28;20492;-59
2022/03/28 07:22:52;;;;;;;10.73;7.32;;;19.40;87.40;;;;;;5030576;28;20055;-59
2022/03/28 07:25:18;;;;;;;8.75;7.28;;;20.10;83.80;;;;;;5050069;28;20036;-57
2022/03/28 07:27:44;;;;;;;11.10;8.93;;;20.60;83.10;;;;;;5037205;28;20383;-59
2022/03/28 07:30:12;;;;;;;8.32;7.32;;;20.90;79.30;;;;;;5035602;28;20113;-59
2022/03/28 07:32:38;;;;;;;17.50;7.65;;;20.80;80.00;;;;;;5035132;28;20039;-60
2022/03/28 07:35:04;;;;;;;9.45;7.47;;;20.20;78.50;;;;;;5041324;28;20493;-58
2022/03/28 07:37:30;;;;;;;12.15;8.13;;;20.90;78.80;;;;;;5035827;28;20025;-60
2022/03/28 07:39:57;;;;;;;15.88;8.88;;;19.90;78.90;;;;;;5040497;28;20071;-60
2022/03/28 07:42:22;;;;;;;11.98;8.73;;;19.50;80.60;;;;;;5030438;28;20568;-57
2022/03/28 07:44:48;;;;;;;12.48;7.95;;;19.30;81.40;;;;;;5039749;28;20112;-59
2022/03/28 07:47:14;;;;;;;8.52;7.50;;;20.60;78.30;;;;;;5030019;28;20035;-58
2022/03/28 07:49:39;;;;;;;9.70;8.02;;;20.40;79.10;;;;;;5043684;28;20124;-58
2022/03/28 07:52:07;;;;;;;11.27;8.02;;;20.50;78.90;;;;;;5030259;28;20109;-58
2022/03/28 07:54:32;;;;;;;11.63;8.18;;;21.30;76.80;;;;;;5032241;28;20036;-52
2022/03/28 07:56:59;;;;;;;11.02;7.90;;;21.30;76.70;;;;;;5049162;28;20108;-60
2022/03/28 07:59:24;;;;;;;16.38;8.63;;;22.00;74.20;;;;;;5037693;28;20535;-59
2022/03/28 08:01:51;;;;;;;10.43;8.98;;;21.60;74.50;;;;;;5029832;28;20034;-57
2022/03/28 08:04:17;;;;;;;12.57;8.85;;;20.70;76.30;;;;;;5031127;28;20121;-60
2022/03/28 08:06:43;;;;;;;11.85;8.35;;;20.00;77.60;;;;;;5029962;28;20454;-59
2022/03/28 08:09:08;;;;;;;14.85;10.02;;;20.20;79.10;;;;;;5039570;28;20033;-58
2022/03/28 08:11:35;;;;;;;12.73;9.15;;;19.90;78.50;;;;;;5034782;28;20037;-58
2022/03/28 08:14:02;;;;;;;13.02;10.68;;;20.40;78.50;;;;;;5039568;28;20058;-56
2022/03/28 08:16:28;;;;;;;13.63;9.93;;;20.10;78.00;;;;;;5044328;28;20025;-58
2022/03/28 08:18:53;;;;;;;10.90;9.32;;;20.40;78.60;;;;;;5045426;28;20044;-58
2022/03/28 08:21:19;;;;;;;13.65;9.38;;;21.30;76.40;;;;;;5027533;28;20427;-60
2022/03/28 08:23:44;;;;;;;13.18;10.13;;;22.10;74.10;;;;;;5039486;28;20481;-59
2022/03/28 08:26:10;;;;;;;11.02;8.98;;;22.10;75.20;;;;;;5032990;28;20030;-57
2022/03/28 08:28:36;;;;;;;13.05;10.45;;;22.40;73.70;;;;;;5051035;28;20114;-59
2022/03/28 08:31:01;;;;;;;17.35;11.27;;;21.70;74.50;;;;;;5039467;28;20025;-58
2022/03/28 08:33:27;;;;;;;15.55;11.73;;;21.70;74.00;;;;;;5040787;28;20025;-58
2022/03/28 08:35:53;;;;;;;13.35;11.13;;;21.20;75.70;;;;;;5053107;28;20025;-57
2022/03/28 08:38:19;;;;;;;15.98;11.32;;;21.00;76.30;;;;;;5050437;28;20063;-59
2022/03/28 08:40:44;;;;;;;14.55;10.00;;;21.70;75.30;;;;;;5046304;28;20423;-58
2022/03/28 08:43:10;;;;;;;14.20;10.55;;;21.60;74.10;;;;;;5038455;28;20041;-58
2022/03/28 08:45:41;;;;;;;13.10;10.57;;;21.10;75.60;;;;;;5033938;28;20470;-57
2022/03/28 08:48:09;;;;;;;16.73;11.48;;;21.50;74.80;;;;;;5041014;28;20022;-58
2022/03/28 08:50:35;;;;;;;18.67;11.63;;;21.50;74.20;;;;;;5046344;28;20079;-60
2022/03/28 08:53:01;;;;;;;13.77;10.70;;;21.60;74.60;;;;;;5033456;28;20666;-58
2022/03/28 08:55:27;;;;;;;12.85;10.60;;;21.30;75.40;;;;;;5044274;28;20029;-57
2022/03/28 08:57:52;;;;;;;17.08;11.93;;;21.70;74.30;;;;;;5033003;28;20500;-54
2022/03/28 09:00:18;;;;;;;15.85;11.40;;;21.20;75.20;;;;;;5048354;28;20029;-57
2022/03/28 09:02:46;;;;;;;19.65;12.20;;;21.40;75.60;;;;;;5040644;28;20385;-59
2022/03/28 09:05:16;;;;;;;15.20;12.18;;;21.20;75.10;;;;;;5051869;28;20025;-59
2022/03/28 09:07:42;;;;;;;15.95;12.07;;;21.50;75.70;;;;;;5034957;28;20037;-60
2022/03/28 09:10:17;;;;;;;19.17;12.35;;;22.20;73.60;;;;;;5033826;28;20404;-60
2022/03/28 09:13:11;;;;;;;18.02;12.23;;;22.00;73.30;;;;;;5037404;28;20021;-59
2022/03/28 09:15:48;;;;;;;15.45;12.30;;;22.00;74.40;;;;;;5041747;28;20083;-59
2022/03/28 09:18:35;;;;;;;20.45;13.13;;;22.40;72.10;;;;;;5037461;28;20029;-59
2022/03/28 09:21:11;;;;;;;18.48;13.00;;;21.50;72.50;;;;;;5035150;28;20111;-62
2022/03/28 09:23:40;;;;;;;16.48;13.57;;;21.80;74.20;;;;;;5037480;28;20041;-59
2022/03/28 09:26:20;;;;;;;18.98;13.50;;;21.90;74.20;;;;;;5033922;28;20026;-57
2022/03/28 09:28:49;;;;;;;14.50;11.20;;;21.80;73.30;;;;;;5047912;28;20140;-60
2022/03/28 09:31:30;;;;;;;18.73;13.05;;;21.90;73.50;;;;;;5032186;28;20034;-59
2022/03/28 09:34:03;;;;;;;18.02;13.18;;;21.90;73.80;;;;;;5036583;28;20025;-59
2022/03/28 09:36:53;;;;;;;18.70;14.20;;;21.70;73.60;;;;;;5046815;28;20028;-60
2022/03/28 09:39:20;;;;;;;19.17;14.27;;;21.20;72.60;;;;;;5040890;28;20036;-58
2022/03/28 09:42:07;;;;;;;19.38;14.27;;;20.90;73.70;;;;;;5031572;28;20029;-59
2022/03/28 09:44:50;;;;;;;17.92;13.43;;;20.90;73.70;;;;;;5033347;28;20044;-59
2022/03/28 09:47:20;;;;;;;18.35;14.55;;;20.60;75.10;;;;;;5047800;28;20513;-56
2022/03/28 09:49:49;;;;;;;24.05;14.35;;;21.00;74.50;;;;;;5037891;28;20043;-59
2022/03/28 09:52:17;;;;;;;18.90;13.80;;;21.60;74.40;;;;;;5032121;28;20062;-57
2022/03/28 09:54:43;;;;;;;20.02;14.43;;;21.70;72.10;;;;;;5046357;28;20031;-57
2022/03/28 09:57:09;;;;;;;20.85;15.05;;;21.90;71.80;;;;;;5049358;28;20033;-57
2022/03/28 09:59:42;;;;;;;23.25;15.90;;;21.80;72.60;;;;;;5042617;28;20034;-58
2022/03/28 10:02:19;;;;;;;20.52;14.60;;;21.20;72.50;;;;;;5031768;28;20032;-58
2022/03/28 10:04:47;;;;;;;27.77;16.00;;;21.30;73.80;;;;;;5045697;28;20171;-57
2022/03/28 10:07:13;;;;;;;22.13;15.50;;;21.20;71.70;;;;;;5035204;28;20113;-58
2022/03/28 10:09:39;;;;;;;18.83;14.80;;;21.40;72.00;;;;;;5034271;28;20120;-58
2022/03/28 10:12:06;;;;;;;21.25;15.02;;;21.40;72.80;;;;;;5040059;28;20499;-57
2022/03/28 10:14:32;;;;;;;25.08;15.98;;;21.00;72.70;;;;;;5044984;28;20053;-58
2022/03/28 10:17:02;;;;;;;19.20;13.65;;;20.90;72.00;;;;;;5049352;28;20110;-58
2022/03/28 10:19:30;;;;;;;20.38;12.77;;;21.20;72.60;;;;;;5041695;28;20087;-59
2022/03/28 10:21:57;;;;;;;21.45;14.05;;;21.30;70.00;;;;;;5021108;28;20586;-57
2022/03/28 10:24:25;;;;;;;24.60;14.35;;;20.80;71.00;;;;;;5048198;28;20044;-58
2022/03/28 10:26:53;;;;;;;22.67;14.43;;;20.40;72.30;;;;;;5051828;28;20158;-56
2022/03/28 10:29:22;;;;;;;21.35;13.63;;;20.50;72.00;;;;;;5047840;28;20107;-60
2022/03/28 10:31:59;;;;;;;24.63;14.32;;;21.00;67.40;;;;;;5032742;28;20423;-57
2022/03/28 10:34:52;;;;;;;26.45;14.85;;;20.90;68.80;;;;;;5037870;28;20021;-59
2022/03/28 10:37:31;;;;;;;25.58;14.30;;;20.90;71.70;;;;;;5041050;28;20033;-59
2022/03/28 10:40:12;;;;;;;23.67;14.85;;;20.70;71.10;;;;;;5039730;28;20025;-57
2022/03/28 10:42:44;;;;;;;27.30;14.90;;;20.40;71.50;;;;;;5038576;28;20028;-59
2022/03/28 10:45:10;;;;;;;25.67;14.63;;;19.90;71.20;;;;;;5041305;28;20434;-56
2022/03/28 10:47:49;;;;;;;28.33;15.35;;;20.00;73.70;;;;;;5039075;28;20040;-54
2022/03/28 10:50:20;;;;;;;26.10;14.98;;;19.90;71.50;;;;;;5033270;28;20061;-57
2022/03/28 10:53:07;;;;;;;25.05;15.45;;;19.80;72.50;;;;;;5039681;28;20040;-58
2022/03/28 10:55:57;;;;;;;29.75;15.38;;;20.10;72.20;;;;;;5035062;28;20387;-57
2022/03/28 10:58:28;;;;;;;24.55;15.23;;;20.20;72.50;;;;;;5040995;28;20120;-60
2022/03/28 11:01:09;;;;;;;24.67;13.52;;;20.50;70.00;;;;;;5038205;28;20033;-59
2022/03/28 11:03:47;;;;;;;22.77;13.32;;;20.60;71.10;;;;;;5038763;28;20051;-57
2022/03/28 11:06:18;;;;;;;24.88;13.35;;;20.60;69.50;;;;;;5037547;28;20373;-57
2022/03/28 11:08:56;;;;;;;26.58;14.25;;;20.30;69.10;;;;;;5042143;28;20036;-58
2022/03/28 11:11:27;;;;;;;26.30;13.55;;;20.40;68.90;;;;;;5039596;28;20025;-58
2022/03/28 11:14:06;;;;;;;25.48;14.02;;;20.60;68.50;;;;;;5050127;28;20028;-58
2022/03/28 11:16:43;;;;;;;25.83;13.32;;;20.50;67.50;;;;;;5045962;28;20032;-58
2022/03/28 11:19:20;;;;;;;26.80;14.13;;;20.40;67.80;;;;;;5038961;28;20037;-58
2022/03/28 11:22:08;;;;;;;26.75;14.52;;;20.10;67.90;;;;;;5022813;28;20025;-58
2022/03/28 11:24:51;;;;;;;30.23;13.30;;;19.90;67.80;;;;;;5039588;28;20053;-58
2022/03/28 11:27:17;;;;;;;27.70;14.05;;;20.10;68.50;;;;;;5038344;28;20476;-57
2022/03/28 11:29:44;;;;;;;27.13;12.57;;;20.20;66.30;;;;;;5036627;28;20593;-55
2022/03/28 11:32:19;;;;;;;20.88;12.38;;;20.30;67.10;;;;;;5043364;28;20381;-61
2022/03/28 11:34:53;;;;;;;24.35;12.98;;;20.50;67.60;;;;;;5038658;28;20060;-60
2022/03/28 11:37:23;;;;;;;27.60;13.40;;;20.40;68.10;;;;;;5045559;28;20100;-57
2022/03/28 11:39:58;;;;;;;25.45;12.90;;;20.40;66.20;;;;;;5039235;28;20491;-57
2022/03/28 11:42:26;;;;;;;24.70;12.98;;;20.50;67.90;;;;;;5042243;28;20032;-58
2022/03/28 11:44:52;;;;;;;25.63;14.27;;;20.40;66.20;;;;;;5040655;28;20036;-57
2022/03/28 11:47:18;;;;;;;27.38;14.88;;;20.20;66.60;;;;;;5036427;28;20028;-59
2022/03/28 11:49:56;;;;;;;19.90;12.75;;;20.30;67.00;;;;;;5045384;28;20573;-55
2022/03/28 11:52:22;;;;;;;26.08;12.57;;;20.40;65.70;;;;;;5039138;28;20128;-58
2022/03/28 11:54:48;;;;;;;24.30;12.30;;;20.40;65.40;;;;;;5049224;28;20029;-56
2022/03/28 12:00:31;;;;;;;27.42;11.52;;;20.50;63.70;;;;;;5032854;28;20048;-55
2022/03/28 12:02:58;;;;;;;23.88;13.48;;;20.60;65.40;;;;;;5040650;28;20033;-57
2022/03/28 12:05:35;;;;;;;25.45;14.27;;;20.50;66.90;;;;;;5043221;28;20504;-58
2022/03/28 12:08:08;;;;;;;31.27;14.05;;;20.50;65.60;;;;;;5033753;28;20033;-58
2022/03/28 12:10:36;;;;;;;26.45;9.38;;;20.40;65.00;;;;;;5029569;28;20067;-57
2022/03/28 12:13:05;;;;;;;21.70;11.07;;;20.30;61.40;;;;;;5026425;28;20037;-59
2022/03/28 12:15:37;;;;;;;22.63;10.63;;;20.30;61.40;;;;;;5048559;28;20030;-59
2022/03/28 12:18:06;;;;;;;23.27;10.15;;;20.20;60.30;;;;;;5041204;28;20432;-60
2022/03/28 12:20:34;;;;;;;19.05;10.93;;;20.20;61.00;;;;;;5040571;28;20033;-58
2022/03/28 12:23:04;;;;;;;19.55;9.80;;;20.20;61.90;;;;;;5022713;28;20038;-57
2022/03/28 12:25:36;;;;;;;18.33;9.57;;;20.10;60.60;;;;;;5033510;28;20109;-55
2022/03/28 12:28:05;;;;;;;26.48;10.07;;;20.20;61.60;;;;;;5038522;28;20756;-55
2022/03/28 12:30:40;;;;;;;19.05;10.20;;;20.00;60.80;;;;;;5034738;28;20029;-58
2022/03/28 12:33:14;;;;;;;19.38;10.70;;;20.10;61.10;;;;;;5037376;28;20117;-56
2022/03/28 12:35:51;;;;;;;20.13;11.10;;;20.10;62.30;;;;;;5045109;28;20036;-59
2022/03/28 12:38:20;;;;;;;21.02;10.65;;;20.10;62.10;;;;;;5040375;28;20272;-58
2022/03/28 12:40:50;;;;;;;18.00;9.50;;;20.10;62.10;;;;;;5042311;28;20017;-59
2022/03/28 12:43:17;;;;;;;17.05;9.65;;;20.10;60.30;;;;;;5043075;28;20479;-59